createdAt,value
2023-02-28T00:00:22.706Z,0
2023-02-28T00:01:23.315Z,0
2023-02-28T00:02:23.925Z,0
2023-02-28T00:03:24.511Z,0
2023-02-28T00:04:25.111Z,0
2023-02-28T00:05:25.703Z,0
2023-02-28T00:06:26.299Z,0
2023-02-28T00:07:26.890Z,0
2023-02-28T00:08:27.482Z,0
2023-02-28T00:09:28.093Z,0
2023-02-28T00:10:28.688Z,0
2023-02-28T00:11:29.558Z,0
2023-02-28T00:12:30.267Z,0
2023-02-28T00:13:30.856Z,0
2023-02-28T00:14:31.451Z,0
2023-02-28T00:15:32.044Z,0
2023-02-28T00:16:32.657Z,0
2023-02-28T00:17:33.232Z,0
2023-02-28T00:18:33.841Z,0
2023-02-28T00:19:34.442Z,0
2023-02-28T00:20:35.026Z,0
2023-02-28T00:21:35.621Z,0
2023-02-28T00:22:36.208Z,0
2023-02-28T00:23:36.802Z,0
2023-02-28T00:24:37.394Z,0
2023-02-28T00:25:38.011Z,0
2023-02-28T00:26:38.593Z,0
2023-02-28T00:27:39.192Z,0
2023-02-28T00:28:39.781Z,0
2023-02-28T00:29:40.391Z,0
2023-02-28T00:30:41.008Z,0
2023-02-28T00:31:41.573Z,0
2023-02-28T00:32:42.165Z,0
2023-02-28T00:33:42.762Z,0
2023-02-28T00:34:43.376Z,0
2023-02-28T00:35:43.985Z,0
2023-02-28T00:36:44.556Z,0
2023-02-28T00:37:45.163Z,0
2023-02-28T00:38:45.740Z,0
2023-02-28T00:39:46.330Z,0
2023-02-28T00:40:46.942Z,0
2023-02-28T00:41:47.558Z,0
2023-02-28T00:42:48.169Z,0
2023-02-28T00:43:48.782Z,0
2023-02-28T00:44:49.375Z,0
2023-02-28T00:45:49.994Z,0
2023-02-28T00:46:50.576Z,0
2023-02-28T00:47:51.183Z,0
2023-02-28T00:48:51.909Z,0
2023-02-28T00:49:52.516Z,0
2023-02-28T00:50:53.119Z,0
2023-02-28T00:51:53.704Z,0
2023-02-28T00:52:54.293Z,0
2023-02-28T00:53:54.886Z,0
2023-02-28T00:54:55.514Z,0
2023-02-28T00:55:56.092Z,0
2023-02-28T00:56:56.678Z,0
2023-02-28T00:57:57.270Z,0
2023-02-28T00:58:57.862Z,0
2023-02-28T00:59:58.466Z,0
2023-02-28T01:00:59.066Z,0
2023-02-28T01:01:59.681Z,0
2023-02-28T01:03:00.269Z,0
2023-02-28T01:04:00.863Z,0
2023-02-28T01:05:01.454Z,0
2023-02-28T01:06:02.052Z,0
2023-02-28T01:07:02.638Z,0
2023-02-28T01:08:03.251Z,0
2023-02-28T01:09:03.842Z,0
2023-02-28T01:10:04.436Z,0
2023-02-28T01:11:05.027Z,0
2023-02-28T01:12:05.640Z,0
2023-02-28T01:13:06.229Z,0
2023-02-28T01:14:06.823Z,0
2023-02-28T01:15:07.414Z,0
2023-02-28T01:16:08.058Z,0
2023-02-28T01:17:08.607Z,0
2023-02-28T01:18:09.222Z,0
2023-02-28T01:19:09.846Z,0
2023-02-28T01:20:10.446Z,0
2023-02-28T01:21:11.039Z,0
2023-02-28T01:22:11.636Z,0
2023-02-28T01:23:12.228Z,0
2023-02-28T01:24:12.820Z,0
2023-02-28T01:25:13.430Z,0
2023-02-28T01:26:14.013Z,0
2023-02-28T01:27:14.617Z,0
2023-02-28T01:28:15.208Z,0
2023-02-28T01:29:15.801Z,0
2023-02-28T01:30:16.399Z,0
2023-02-28T01:31:17.163Z,0
2023-02-28T01:32:17.815Z,0
2023-02-28T01:33:18.413Z,0
2023-02-28T01:34:19.017Z,0
2023-02-28T01:35:19.620Z,0
2023-02-28T01:36:20.200Z,0
2023-02-28T01:37:20.812Z,0
2023-02-28T01:38:23.127Z,0
2023-02-28T01:39:22.986Z,0
2023-02-28T01:40:23.629Z,0
2023-02-28T01:41:24.198Z,0
2023-02-28T01:42:24.805Z,0
2023-02-28T01:43:25.408Z,0
2023-02-28T01:44:25.989Z,0
2023-02-28T01:45:26.595Z,0
2023-02-28T01:46:27.211Z,0
2023-02-28T01:47:27.769Z,0
2023-02-28T01:48:28.375Z,0
2023-02-28T01:49:28.975Z,0
2023-02-28T01:50:29.575Z,0
2023-02-28T01:51:30.463Z,0
2023-02-28T01:52:31.131Z,0
2023-02-28T01:53:31.721Z,0
2023-02-28T01:54:32.307Z,0
2023-02-28T01:55:32.898Z,0
2023-02-28T01:56:33.491Z,0
2023-02-28T01:57:34.085Z,0
2023-02-28T01:58:34.676Z,0
2023-02-28T01:59:35.269Z,0
2023-02-28T02:00:35.859Z,0
2023-02-28T02:01:36.471Z,0
2023-02-28T02:02:37.070Z,0
2023-02-28T02:03:37.639Z,0
2023-02-28T02:04:38.244Z,0
2023-02-28T02:05:38.826Z,0
2023-02-28T02:06:39.411Z,0
2023-02-28T02:07:40.012Z,0
2023-02-28T02:08:40.598Z,0
2023-02-28T02:09:41.214Z,0
2023-02-28T02:10:41.800Z,0
2023-02-28T02:11:42.392Z,0
2023-02-28T02:12:42.983Z,0
2023-02-28T02:13:43.574Z,0
2023-02-28T02:14:44.168Z,0
2023-02-28T02:15:44.841Z,0
2023-02-28T02:16:45.412Z,0
2023-02-28T02:17:46.005Z,0
2023-02-28T02:18:46.609Z,0
2023-02-28T02:19:47.207Z,0
2023-02-28T02:20:47.802Z,0
2023-02-28T02:21:48.395Z,0
2023-02-28T02:22:48.993Z,0
2023-02-28T02:23:49.597Z,0
2023-02-28T02:24:50.192Z,0
2023-02-28T02:25:50.785Z,0
2023-02-28T02:26:51.401Z,0
2023-02-28T02:27:51.993Z,0
2023-02-28T02:28:52.578Z,0
2023-02-28T02:29:53.178Z,0
2023-02-28T02:30:53.781Z,0
2023-02-28T02:31:54.415Z,0
2023-02-28T02:32:54.987Z,0
2023-02-28T02:33:55.575Z,0
2023-02-28T02:34:56.170Z,0
2023-02-28T02:35:56.799Z,0
2023-02-28T02:36:57.355Z,0
2023-02-28T02:37:57.944Z,0
2023-02-28T02:38:58.540Z,0
2023-02-28T02:39:59.133Z,0
2023-02-28T02:40:59.740Z,0
2023-02-28T02:42:00.354Z,0
2023-02-28T02:43:00.945Z,0
2023-02-28T02:44:01.557Z,0
2023-02-28T02:45:02.167Z,0
2023-02-28T02:46:02.779Z,0
2023-02-28T02:47:03.372Z,0
2023-02-28T02:48:03.966Z,0
2023-02-28T02:49:04.558Z,0
2023-02-28T02:50:05.146Z,0
2023-02-28T02:51:05.741Z,0
2023-02-28T02:52:06.334Z,0
2023-02-28T02:53:06.925Z,0
2023-02-28T02:54:07.520Z,0
2023-02-28T02:55:08.109Z,0
2023-02-28T02:56:08.721Z,0
2023-02-28T02:57:09.317Z,0
2023-02-28T02:58:09.913Z,0
2023-02-28T02:59:10.503Z,0
2023-02-28T03:00:11.113Z,0
2023-02-28T03:01:11.789Z,0
2023-02-28T03:02:12.363Z,0
2023-02-28T03:03:12.959Z,0
2023-02-28T03:04:13.542Z,0
2023-02-28T03:05:14.137Z,0
2023-02-28T03:06:14.729Z,0
2023-02-28T03:07:15.324Z,0
2023-02-28T03:08:15.922Z,0
2023-02-28T03:09:16.532Z,0
2023-02-28T03:10:17.121Z,0
2023-02-28T03:11:17.715Z,0
2023-02-28T03:12:18.309Z,0
2023-02-28T03:13:18.902Z,0
2023-02-28T03:14:19.493Z,0
2023-02-28T03:15:20.095Z,0
2023-02-28T03:16:20.714Z,0
2023-02-28T03:17:21.298Z,0
2023-02-28T03:18:21.921Z,0
2023-02-28T03:19:22.488Z,0
2023-02-28T03:20:23.100Z,0
2023-02-28T03:21:23.695Z,0
2023-02-28T03:22:24.289Z,0
2023-02-28T03:23:24.884Z,0
2023-02-28T03:24:25.476Z,0
2023-02-28T03:25:26.069Z,0
2023-02-28T03:26:26.663Z,0
2023-02-28T03:27:27.256Z,0
2023-02-28T03:28:27.850Z,0
2023-02-28T03:29:28.459Z,0
2023-02-28T03:30:29.034Z,0
2023-02-28T03:31:29.915Z,0
2023-02-28T03:32:30.654Z,0
2023-02-28T03:33:31.238Z,0
2023-02-28T03:34:31.820Z,0
2023-02-28T03:35:32.433Z,0
2023-02-28T03:36:33.031Z,0
2023-02-28T03:37:33.643Z,0
2023-02-28T03:38:34.258Z,0
2023-02-28T03:39:34.848Z,0
2023-02-28T03:40:35.452Z,0
2023-02-28T03:41:36.038Z,0
2023-02-28T03:42:36.627Z,0
2023-02-28T03:43:37.223Z,0
2023-02-28T03:44:37.835Z,0
2023-02-28T03:45:38.459Z,0
2023-02-28T03:46:39.018Z,0
2023-02-28T03:47:39.635Z,0
2023-02-28T03:48:40.245Z,0
2023-02-28T03:49:40.846Z,0
2023-02-28T03:50:41.429Z,0
2023-02-28T03:51:42.023Z,0
2023-02-28T03:52:42.612Z,0
2023-02-28T03:53:43.210Z,0
2023-02-28T03:54:43.817Z,0
2023-02-28T03:55:44.407Z,0
2023-02-28T03:56:45.001Z,0
2023-02-28T03:57:45.593Z,0
2023-02-28T03:58:46.189Z,0
2023-02-28T03:59:46.779Z,0
2023-02-28T04:00:47.400Z,0
2023-02-28T04:01:48.052Z,0
2023-02-28T04:02:48.623Z,0
2023-02-28T04:03:49.216Z,0
2023-02-28T04:04:49.981Z,0
2023-02-28T04:05:50.418Z,0
2023-02-28T04:06:51.662Z,0
2023-02-28T04:07:52.219Z,0
2023-02-28T04:08:52.814Z,0
2023-02-28T04:09:53.408Z,0
2023-02-28T04:10:54.002Z,0
2023-02-28T04:11:54.607Z,0
2023-02-28T04:12:55.198Z,0
2023-02-28T04:13:55.793Z,0
2023-02-28T04:14:56.392Z,0
2023-02-28T04:15:57.144Z,0
2023-02-28T04:16:57.696Z,0
2023-02-28T04:17:58.290Z,0
2023-02-28T04:18:58.887Z,0
2023-02-28T04:19:59.481Z,0
2023-02-28T04:21:00.103Z,0
2023-02-28T04:22:00.669Z,0
2023-02-28T04:23:01.275Z,0
2023-02-28T04:24:01.889Z,0
2023-02-28T04:25:02.487Z,0
2023-02-28T04:26:03.079Z,0
2023-02-28T04:27:03.676Z,0
2023-02-28T04:28:04.301Z,0
2023-02-28T04:29:04.881Z,0
2023-02-28T04:30:05.468Z,0
2023-02-28T04:31:06.061Z,0
2023-02-28T04:32:06.766Z,0
2023-02-28T04:33:07.400Z,0
2023-02-28T04:34:08.003Z,0
2023-02-28T04:35:10.242Z,0
2023-02-28T04:36:10.192Z,0
2023-02-28T04:37:13.613Z,0
2023-02-28T04:38:12.370Z,0
2023-02-28T04:39:12.960Z,0
2023-02-28T04:40:13.554Z,0
2023-02-28T04:41:14.147Z,0
2023-02-28T04:42:14.742Z,0
2023-02-28T04:43:15.334Z,0
2023-02-28T04:44:15.926Z,0
2023-02-28T04:45:16.522Z,0
2023-02-28T04:46:17.112Z,0
2023-02-28T04:47:17.702Z,0
2023-02-28T04:48:18.303Z,0
2023-02-28T04:49:18.890Z,0
2023-02-28T04:50:19.488Z,0
2023-02-28T04:51:20.128Z,0
2023-02-28T04:52:20.676Z,0
2023-02-28T04:53:21.269Z,0
2023-02-28T04:54:21.890Z,0
2023-02-28T04:55:22.476Z,0
2023-02-28T04:56:23.065Z,0
2023-02-28T04:57:23.657Z,0
2023-02-28T04:58:24.255Z,0
2023-02-28T04:59:24.848Z,0
2023-02-28T05:00:25.456Z,0
2023-02-28T05:01:26.054Z,0
2023-02-28T05:02:26.677Z,0
2023-02-28T05:03:28.147Z,0
2023-02-28T05:04:27.910Z,0
2023-02-28T05:05:28.472Z,0
2023-02-28T05:06:29.069Z,0
2023-02-28T05:07:29.659Z,0
2023-02-28T05:08:30.253Z,0
2023-02-28T05:09:30.849Z,0
2023-02-28T05:10:31.443Z,0
2023-02-28T05:11:32.266Z,0
2023-02-28T05:12:32.635Z,0
2023-02-28T05:13:33.260Z,0
2023-02-28T05:14:33.818Z,0
2023-02-28T05:15:35.731Z,0
2023-02-28T05:16:35.076Z,0
2023-02-28T05:17:35.658Z,0
2023-02-28T05:18:36.287Z,0
2023-02-28T05:19:36.855Z,0
2023-02-28T05:20:37.449Z,0
2023-02-28T05:21:38.049Z,0
2023-02-28T05:22:38.629Z,0
2023-02-28T05:23:39.222Z,0
2023-02-28T05:24:39.815Z,0
2023-02-28T05:25:40.433Z,0
2023-02-28T05:26:41.067Z,0
2023-02-28T05:27:41.648Z,0
2023-02-28T05:28:42.234Z,0
2023-02-28T05:29:42.854Z,0
2023-02-28T05:30:43.423Z,0
2023-02-28T05:31:44.093Z,0
2023-02-28T05:32:44.649Z,0
2023-02-28T05:33:45.249Z,0
2023-02-28T05:34:45.841Z,0
2023-02-28T05:35:46.467Z,0
2023-02-28T05:36:47.047Z,0
2023-02-28T05:37:47.645Z,0
2023-02-28T05:38:48.267Z,4
2023-02-28T05:39:48.850Z,4
2023-02-28T05:40:49.441Z,0
2023-02-28T05:41:50.055Z,4
2023-02-28T05:42:50.653Z,4
2023-02-28T05:43:51.250Z,4
2023-02-28T05:44:51.850Z,8
2023-02-28T05:45:52.482Z,8
2023-02-28T05:46:53.081Z,12
2023-02-28T05:47:53.704Z,8
2023-02-28T05:48:54.404Z,12
2023-02-28T05:49:54.968Z,16
2023-02-28T05:50:55.562Z,16
2023-02-28T05:51:56.155Z,24
2023-02-28T05:52:56.772Z,28
2023-02-28T05:53:57.369Z,32
2023-02-28T05:54:57.960Z,36
2023-02-28T05:55:58.557Z,48
2023-02-28T05:56:59.151Z,56
2023-02-28T05:57:59.747Z,64
2023-02-28T05:59:00.348Z,76
2023-02-28T06:00:00.936Z,92
2023-02-28T06:01:01.532Z,104
2023-02-28T06:02:02.171Z,120
2023-02-28T06:03:02.809Z,140
2023-02-28T06:04:03.339Z,160
2023-02-28T06:05:03.949Z,184
2023-02-28T06:06:04.544Z,208
2023-02-28T06:07:05.152Z,236
2023-02-28T06:08:05.756Z,268
2023-02-28T06:09:06.369Z,300
2023-02-28T06:10:06.950Z,336
2023-02-28T06:11:07.549Z,376
2023-02-28T06:12:08.180Z,416
2023-02-28T06:13:08.756Z,460
2023-02-28T06:14:09.362Z,508
2023-02-28T06:15:09.964Z,556
2023-02-28T06:16:10.554Z,608
2023-02-28T06:17:11.154Z,660
2023-02-28T06:18:11.747Z,716
2023-02-28T06:19:12.342Z,780
2023-02-28T06:20:12.942Z,836
2023-02-28T06:21:13.534Z,900
2023-02-28T06:22:14.133Z,964
2023-02-28T06:23:14.727Z,1032
2023-02-28T06:24:15.331Z,1096
2023-02-28T06:25:15.922Z,1168
2023-02-28T06:26:16.520Z,1236
2023-02-28T06:27:17.115Z,1304
2023-02-28T06:28:17.717Z,1376
2023-02-28T06:29:18.316Z,1452
2023-02-28T06:30:18.906Z,1524
2023-02-28T06:31:19.527Z,1596
2023-02-28T06:32:20.133Z,1668
2023-02-28T06:33:20.712Z,1740
2023-02-28T06:34:21.314Z,1820
2023-02-28T06:35:21.938Z,1892
2023-02-28T06:36:22.527Z,1968
2023-02-28T06:37:23.123Z,2044
2023-02-28T06:38:23.721Z,2120
2023-02-28T06:39:24.322Z,2196
2023-02-28T06:40:24.915Z,2272
2023-02-28T06:41:25.516Z,2344
2023-02-28T06:42:26.108Z,2416
2023-02-28T06:43:26.708Z,2488
2023-02-28T06:44:27.648Z,2560
2023-02-28T06:45:28.157Z,2628
2023-02-28T06:46:28.771Z,2700
2023-02-28T06:47:29.354Z,2768
2023-02-28T06:48:29.966Z,2832
2023-02-28T06:49:30.552Z,2900
2023-02-28T06:50:31.151Z,2964
2023-02-28T06:51:31.892Z,3032
2023-02-28T06:52:32.365Z,3092
2023-02-28T06:53:32.967Z,3156
2023-02-28T06:54:33.564Z,3216
2023-02-28T06:55:34.161Z,3276
2023-02-28T06:56:34.765Z,3340
2023-02-28T06:57:35.372Z,3392
2023-02-28T06:58:35.973Z,3448
2023-02-28T06:59:36.568Z,3512
2023-02-28T07:00:37.168Z,3568
2023-02-28T07:01:37.817Z,3620
2023-02-28T07:02:38.376Z,3672
2023-02-28T07:03:38.970Z,3728
2023-02-28T07:04:39.589Z,3784
2023-02-28T07:05:40.162Z,3836
2023-02-28T07:06:40.759Z,3888
2023-02-28T07:07:41.356Z,3936
2023-02-28T07:08:41.985Z,4000
2023-02-28T07:09:42.568Z,4232
2023-02-28T07:10:43.166Z,4724
2023-02-28T07:11:43.759Z,5128
2023-02-28T07:12:44.385Z,5120
2023-02-28T07:13:44.972Z,4960
2023-02-28T07:14:45.570Z,5064
2023-02-28T07:15:46.186Z,5436
2023-02-28T07:16:46.825Z,5936
2023-02-28T07:17:47.359Z,6176
2023-02-28T07:18:47.973Z,6380
2023-02-28T07:19:48.573Z,6552
2023-02-28T07:20:49.169Z,6732
2023-02-28T07:21:49.790Z,6916
2023-02-28T07:22:50.383Z,7120
2023-02-28T07:23:50.982Z,7276
2023-02-28T07:24:51.576Z,7420
2023-02-28T07:25:52.174Z,7580
2023-02-28T07:26:52.773Z,7776
2023-02-28T07:27:53.370Z,8000
2023-02-28T07:28:53.968Z,8220
2023-02-28T07:29:54.568Z,8436
2023-02-28T07:30:55.176Z,8624
2023-02-28T07:31:55.787Z,8860
2023-02-28T07:32:56.360Z,9024
2023-02-28T07:33:56.956Z,9232
2023-02-28T07:34:57.572Z,9464
2023-02-28T07:35:58.209Z,9688
2023-02-28T07:36:58.751Z,9856
2023-02-28T07:37:59.371Z,10028
2023-02-28T07:39:00.001Z,10264
2023-02-28T07:40:00.586Z,10448
2023-02-28T07:41:01.188Z,10640
2023-02-28T07:42:01.805Z,10828
2023-02-28T07:43:02.406Z,11032
2023-02-28T07:44:03.005Z,11268
2023-02-28T07:45:03.614Z,11500
2023-02-28T07:46:04.207Z,11772
2023-02-28T07:47:04.848Z,11988
2023-02-28T07:48:05.403Z,12320
2023-02-28T07:49:06.013Z,12568
2023-02-28T07:50:06.622Z,12796
2023-02-28T07:51:07.222Z,13040
2023-02-28T07:52:07.823Z,13220
2023-02-28T07:53:08.420Z,13492
2023-02-28T07:54:09.023Z,13636
2023-02-28T07:55:09.637Z,13896
2023-02-28T07:56:10.239Z,14136
2023-02-28T07:57:10.840Z,14360
2023-02-28T07:58:11.456Z,14536
2023-02-28T07:59:12.056Z,14712
2023-02-28T08:00:12.680Z,14856
2023-02-28T08:01:13.273Z,14984
2023-02-28T08:02:13.893Z,15232
2023-02-28T08:03:14.476Z,15472
2023-02-28T08:04:15.073Z,15684
2023-02-28T08:05:15.744Z,15928
2023-02-28T08:06:16.346Z,16180
2023-02-28T08:07:16.927Z,16472
2023-02-28T08:08:17.608Z,16720
2023-02-28T08:09:18.213Z,16920
2023-02-28T08:10:18.819Z,17440
2023-02-28T08:11:19.408Z,17632
2023-02-28T08:12:20.029Z,17856
2023-02-28T08:13:20.628Z,18080
2023-02-28T08:14:21.240Z,18400
2023-02-28T08:15:21.849Z,18592
2023-02-28T08:16:22.532Z,18752
2023-02-28T08:17:23.156Z,18976
2023-02-28T08:18:23.756Z,19296
2023-02-28T08:19:24.352Z,19840
2023-02-28T08:20:24.980Z,20480
2023-02-28T08:21:25.576Z,21568
2023-02-28T08:22:26.171Z,20512
2023-02-28T08:23:26.774Z,20640
2023-02-28T08:24:27.371Z,20768
2023-02-28T08:25:27.967Z,20224
2023-02-28T08:26:28.586Z,18912
2023-02-28T08:27:29.192Z,18112
2023-02-28T08:28:29.792Z,16524
2023-02-28T08:29:30.405Z,16704
2023-02-28T08:30:31.023Z,16200
2023-02-28T08:31:32.022Z,16840
2023-02-28T08:32:32.897Z,18464
2023-02-28T08:33:33.426Z,20768
2023-02-28T08:34:34.021Z,18592
2023-02-28T08:35:34.693Z,19200
2023-02-28T08:36:35.266Z,19168
2023-02-28T08:37:35.834Z,20320
2023-02-28T08:38:36.456Z,21824
2023-02-28T08:39:37.075Z,20096
2023-02-28T08:40:37.697Z,20384
2023-02-28T08:41:38.297Z,21248
2023-02-28T08:42:38.918Z,20736
2023-02-28T08:43:39.519Z,20256
2023-02-28T08:44:40.112Z,21376
2023-02-28T08:45:40.777Z,23200
2023-02-28T08:46:41.353Z,24256
2023-02-28T08:47:41.945Z,25440
2023-02-28T08:48:42.589Z,25792
2023-02-28T08:49:43.156Z,25408
2023-02-28T08:50:46.446Z,26240
2023-02-28T08:51:45.350Z,27840
2023-02-28T08:52:45.946Z,28352
2023-02-28T08:53:46.550Z,27104
2023-02-28T08:54:47.151Z,26720
2023-02-28T08:55:47.750Z,29088
2023-02-28T08:56:48.348Z,29760
2023-02-28T08:57:48.968Z,26656
2023-02-28T08:58:49.575Z,25056
2023-02-28T08:59:50.170Z,27552
2023-02-28T09:00:50.775Z,29248
2023-02-28T09:01:51.380Z,28448
2023-02-28T09:02:51.994Z,28768
2023-02-28T09:03:52.635Z,30880
2023-02-28T09:04:53.206Z,32416
2023-02-28T09:05:53.805Z,30976
2023-02-28T09:06:54.406Z,27776
2023-02-28T09:07:55.003Z,27680
2023-02-28T09:08:55.629Z,31264
2023-02-28T09:09:56.237Z,32576
2023-02-28T09:10:56.830Z,29440
2023-02-28T09:11:57.450Z,27488
2023-02-28T09:12:58.060Z,33824
2023-02-28T09:13:58.647Z,42880
2023-02-28T09:14:59.264Z,44192
2023-02-28T09:15:59.847Z,39776
2023-02-28T09:17:00.528Z,39072
2023-02-28T09:18:01.092Z,43616
2023-02-28T09:19:01.691Z,46048
2023-02-28T09:20:02.323Z,43200
2023-02-28T09:21:02.914Z,39808
2023-02-28T09:22:03.511Z,38784
2023-02-28T09:23:04.112Z,39264
2023-02-28T09:24:04.711Z,39744
2023-02-28T09:25:05.374Z,42432
2023-02-28T09:26:05.924Z,44736
2023-02-28T09:27:07.088Z,45152
2023-02-28T09:28:07.873Z,41248
2023-02-28T09:29:08.484Z,38368
2023-02-28T09:30:09.104Z,42752
2023-02-28T09:31:09.726Z,47360
2023-02-28T09:32:10.400Z,47296
2023-02-28T09:33:10.924Z,44224
2023-02-28T09:34:11.551Z,44544
2023-02-28T09:35:12.140Z,44544
2023-02-28T09:36:12.790Z,41088
2023-02-28T09:37:13.355Z,39744
2023-02-28T09:38:13.956Z,43872
2023-02-28T09:39:14.568Z,49088
2023-02-28T09:40:15.157Z,45600
2023-02-28T09:41:15.762Z,36960
2023-02-28T09:42:16.362Z,34304
2023-02-28T09:43:17.010Z,38688
2023-02-28T09:44:17.610Z,43040
2023-02-28T09:45:18.232Z,43712
2023-02-28T09:46:18.856Z,42784
2023-02-28T09:47:19.457Z,46240
2023-02-28T09:48:20.043Z,50176
2023-02-28T09:49:20.644Z,50816
2023-02-28T09:50:21.297Z,49920
2023-02-28T09:51:21.899Z,47744
2023-02-28T09:52:22.515Z,46240
2023-02-28T09:53:23.133Z,47264
2023-02-28T09:54:23.753Z,48384
2023-02-28T09:55:24.369Z,48288
2023-02-28T09:56:25.007Z,48416
2023-02-28T09:57:25.614Z,53504
2023-02-28T09:58:26.361Z,60384
2023-02-28T09:59:27.003Z,61344
2023-02-28T10:00:27.625Z,55520
2023-02-28T10:01:28.815Z,52512
2023-02-28T10:02:29.574Z,60544
2023-02-28T10:03:30.177Z,68064
2023-02-28T10:04:30.861Z,66272
2023-02-28T10:05:31.408Z,62496
2023-02-28T10:06:32.008Z,63744
2023-02-28T10:07:32.625Z,69248
2023-02-28T10:08:33.262Z,77920
2023-02-28T10:09:33.858Z,77792
2023-02-28T10:10:34.460Z,73440
2023-02-28T10:11:35.077Z,71264
2023-02-28T10:12:35.669Z,69248
2023-02-28T10:13:36.270Z,64192
2023-02-28T10:14:36.887Z,60320
2023-02-28T10:15:37.577Z,62368
2023-02-28T10:16:38.153Z,69408
2023-02-28T10:17:49.365Z,68160
2023-02-28T10:18:40.387Z,58208
2023-02-28T10:19:40.967Z,52768
2023-02-28T10:20:41.574Z,61152
2023-02-28T10:21:42.164Z,77792
2023-02-28T10:22:42.798Z,86496
2023-02-28T10:23:43.407Z,79488
2023-02-28T10:24:44.011Z,71936
2023-02-28T10:25:44.630Z,70272
2023-02-28T10:26:45.236Z,75808
2023-02-28T10:27:45.837Z,80896
2023-02-28T10:28:46.451Z,77056
2023-02-28T10:29:47.035Z,68896
2023-02-28T10:30:47.685Z,68352
2023-02-28T10:31:48.326Z,78816
2023-02-28T10:32:48.926Z,87008
2023-02-28T10:33:49.505Z,81504
2023-02-28T10:34:50.123Z,65920
2023-02-28T10:35:50.761Z,55776
2023-02-28T10:36:51.345Z,63808
2023-02-28T10:37:51.944Z,77280
2023-02-28T10:38:52.543Z,81120
2023-02-28T10:39:53.145Z,71200
2023-02-28T10:40:53.740Z,54368
2023-02-28T10:41:54.780Z,49184
2023-02-28T10:42:54.966Z,60832
2023-02-28T10:43:55.555Z,75808
2023-02-28T10:44:56.330Z,81856
2023-02-28T10:45:56.948Z,77408
2023-02-28T10:46:57.530Z,68320
2023-02-28T10:47:58.126Z,61408
2023-02-28T10:48:58.727Z,54912
2023-02-28T10:49:59.326Z,52384
2023-02-28T10:50:59.925Z,56224
2023-02-28T10:52:00.542Z,68832
2023-02-28T10:53:01.126Z,78144
2023-02-28T10:54:02.678Z,81120
2023-02-28T10:55:03.318Z,76544
2023-02-28T10:56:03.921Z,67840
2023-02-28T10:57:04.518Z,82560
2023-02-28T10:58:05.148Z,99104
2023-02-28T10:59:05.756Z,91872
2023-02-28T11:00:06.369Z,25984
2023-02-28T11:01:06.972Z,28992
2023-02-28T11:02:08.534Z,33760
2023-02-28T11:03:09.138Z,30112
2023-02-28T11:04:09.738Z,30240
2023-02-28T11:05:10.431Z,29312
2023-02-28T11:06:11.040Z,29280
2023-02-28T11:07:11.639Z,69472
2023-02-28T11:08:12.244Z,30624
2023-02-28T11:09:12.840Z,29600
2023-02-28T11:10:13.459Z,28768
2023-02-28T11:11:14.070Z,26464
2023-02-28T11:12:14.660Z,26464
2023-02-28T11:13:15.257Z,29568
2023-02-28T11:14:15.858Z,26432
2023-02-28T11:15:16.456Z,26144
2023-02-28T11:16:17.122Z,27552
2023-02-28T11:17:17.682Z,35456
2023-02-28T11:18:19.876Z,29184
2023-02-28T11:19:19.881Z,29440
2023-02-28T11:20:20.476Z,29280
2023-02-28T11:21:21.075Z,31104
2023-02-28T11:22:21.698Z,32640
2023-02-28T11:23:22.292Z,42240
2023-02-28T11:24:22.875Z,25600
2023-02-28T11:25:23.479Z,51744
2023-02-28T11:26:24.116Z,96960
2023-02-28T11:27:24.716Z,89440
2023-02-28T11:28:25.329Z,80064
2023-02-28T11:29:25.943Z,89472
2023-02-28T11:30:26.533Z,91488
2023-02-28T11:31:27.485Z,90336
2023-02-28T11:32:28.386Z,83552
2023-02-28T11:33:28.950Z,81952
2023-02-28T11:34:29.547Z,79744
2023-02-28T11:35:30.147Z,79584
2023-02-28T11:36:30.758Z,83200
2023-02-28T11:37:31.371Z,86912
2023-02-28T11:38:31.965Z,88256
2023-02-28T11:39:32.547Z,88960
2023-02-28T11:40:33.146Z,91328
2023-02-28T11:41:33.747Z,90368
2023-02-28T11:42:34.360Z,83616
2023-02-28T11:43:34.947Z,76576
2023-02-28T11:44:35.566Z,73280
2023-02-28T11:45:36.165Z,74528
2023-02-28T11:46:36.848Z,77056
2023-02-28T11:47:37.382Z,80544
2023-02-28T11:48:37.985Z,83872
2023-02-28T11:49:38.589Z,85216
2023-02-28T11:50:39.191Z,80672
2023-02-28T11:51:39.807Z,78144
2023-02-28T11:52:40.428Z,78880
2023-02-28T11:53:41.024Z,77280
2023-02-28T11:54:41.679Z,78720
2023-02-28T11:55:42.254Z,84192
2023-02-28T11:56:42.872Z,89312
2023-02-28T11:57:43.472Z,86976
2023-02-28T11:58:44.090Z,80320
2023-02-28T11:59:44.691Z,83456
2023-02-28T12:00:45.292Z,90976
2023-02-28T12:01:45.892Z,96160
2023-02-28T12:02:46.565Z,94752
2023-02-28T12:03:47.136Z,82656
2023-02-28T12:04:47.755Z,72896
2023-02-28T12:05:48.357Z,76320
2023-02-28T12:06:48.960Z,87808
2023-02-28T12:07:49.561Z,96416
2023-02-28T12:08:50.160Z,96928
2023-02-28T12:09:50.759Z,90496
2023-02-28T12:10:51.376Z,88192
2023-02-28T12:11:51.966Z,91264
2023-02-28T12:12:52.561Z,95552
2023-02-28T12:13:53.178Z,97440
2023-02-28T12:14:53.778Z,99072
2023-02-28T12:15:54.408Z,92352
2023-02-28T12:16:54.983Z,84032
2023-02-28T12:17:55.579Z,79584
2023-02-28T12:18:56.183Z,78208
2023-02-28T12:19:56.779Z,77472
2023-02-28T12:20:57.394Z,80576
2023-02-28T12:21:58.013Z,87648
2023-02-28T12:22:58.606Z,93376
2023-02-28T12:23:59.204Z,86848
2023-02-28T12:24:59.804Z,68032
2023-02-28T12:26:00.403Z,58016
2023-02-28T12:27:01.005Z,60480
2023-02-28T12:28:01.602Z,76448
2023-02-28T12:29:02.220Z,98816
2023-02-28T12:30:02.808Z,109312
2023-02-28T12:31:03.424Z,104224
2023-02-28T12:32:04.100Z,89856
2023-02-28T12:33:04.688Z,73280
2023-02-28T12:34:05.267Z,68864
2023-02-28T12:35:05.899Z,78784
2023-02-28T12:36:06.510Z,99360
2023-02-28T12:37:07.114Z,116672
2023-02-28T12:38:07.717Z,118784
2023-02-28T12:39:08.339Z,104608
2023-02-28T12:40:08.945Z,85792
2023-02-28T12:41:09.535Z,77888
2023-02-28T12:42:10.136Z,79200
2023-02-28T12:43:10.738Z,87584
2023-02-28T12:44:11.336Z,94784
2023-02-28T12:45:11.932Z,91424
2023-02-28T12:46:12.595Z,75680
2023-02-28T12:47:13.256Z,63968
2023-02-28T12:48:13.859Z,62784
2023-02-28T12:49:14.463Z,68032
2023-02-28T12:50:15.060Z,73536
2023-02-28T12:51:15.662Z,77312
2023-02-28T12:52:16.261Z,81120
2023-02-28T12:53:16.873Z,84928
2023-02-28T12:54:17.465Z,89376
2023-02-28T12:55:18.067Z,94624
2023-02-28T12:56:18.667Z,97664
2023-02-28T12:57:19.272Z,100832
2023-02-28T12:58:19.870Z,103136
2023-02-28T12:59:20.473Z,105120
2023-02-28T13:00:21.073Z,102720
2023-02-28T13:01:21.737Z,97152
2023-02-28T13:02:22.338Z,89856
2023-02-28T13:03:22.910Z,68352
2023-02-28T13:04:23.508Z,68128
2023-02-28T13:05:24.119Z,64672
2023-02-28T13:06:24.715Z,71040
2023-02-28T13:07:25.305Z,45088
2023-02-28T13:08:25.909Z,78848
2023-02-28T13:09:26.524Z,76064
2023-02-28T13:10:27.123Z,76416
2023-02-28T13:11:27.734Z,78624
2023-02-28T13:12:28.325Z,83520
2023-02-28T13:13:28.926Z,87072
2023-02-28T13:14:29.548Z,78336
2023-02-28T13:15:30.151Z,72832
2023-02-28T13:16:30.743Z,62560
2023-02-28T13:17:31.364Z,53120
2023-02-28T13:18:31.985Z,51680
2023-02-28T13:19:32.587Z,61216
2023-02-28T13:20:33.188Z,79008
2023-02-28T13:21:33.786Z,89920
2023-02-28T13:22:34.387Z,89376
2023-02-28T13:23:35.007Z,79424
2023-02-28T13:24:35.610Z,73024
2023-02-28T13:25:36.212Z,72768
2023-02-28T13:26:36.805Z,76352
2023-02-28T13:27:37.408Z,78816
2023-02-28T13:28:38.005Z,80384
2023-02-28T13:29:38.605Z,81472
2023-02-28T13:30:39.275Z,85184
2023-02-28T13:31:39.835Z,101440
2023-02-28T13:32:40.437Z,117248
2023-02-28T13:33:41.037Z,116576
2023-02-28T13:34:41.653Z,102720
2023-02-28T13:35:42.294Z,84352
2023-02-28T13:36:42.846Z,78432
2023-02-28T13:37:43.463Z,91040
2023-02-28T13:38:44.052Z,105504
2023-02-28T13:39:44.673Z,110976
2023-02-28T13:40:45.286Z,105664
2023-02-28T13:41:45.885Z,87328
2023-02-28T13:42:46.488Z,70016
2023-02-28T13:43:47.086Z,66112
2023-02-28T13:44:47.687Z,73216
2023-02-28T13:45:48.310Z,82624
2023-02-28T13:46:49.647Z,87872
2023-02-28T13:47:50.649Z,83808
2023-02-28T13:48:51.480Z,76192
2023-02-28T13:49:52.039Z,76032